Time;durP1;ratioP1;P1;durP2;ratioP2;P2;SDS_P1;SDS_P2;PMS_P1;PMS_P2;Temp;Humidity;BMP_temperature;BMP_pressure;BME280_temperature;BME280_humidity;BME280_pressure;Samples;Min_cycle;Max_cycle;Signal;HPM_P1;HPM_P2
2021/04/13 00:02:48;;;;;;;6.43;2.20;;;;;;;2.54;76.63;101989.69;4954501;28;20109;-68
2021/04/13 00:05:32;;;;;;;4.72;2.38;;;;;;;2.55;77.21;101987.94;4954725;28;20134;-69
2021/04/13 00:08:01;;;;;;;5.20;2.10;;;;;;;2.60;77.40;101985.34;4977406;28;20101;-68
2021/04/13 00:10:36;;;;;;;3.10;1.95;;;;;;;2.60;77.20;101985.34;4973544;28;20465;-69
2021/04/13 03:01:41;;;;;;;6.50;4.82;;;;;;;1.62;83.46;102007.19;4985714;28;20112;-70
2021/04/13 03:04:10;;;;;;;10.45;4.57;;;;;;;1.64;83.26;102014.97;4952700;28;20098;-71
2021/04/13 03:06:45;;;;;;;8.40;5.22;;;;;;;1.60;83.38;102008.03;4972184;28;20124;-72
2021/04/13 03:09:14;;;;;;;8.98;4.72;;;;;;;1.57;84.11;102002.84;4990196;28;20048;-72
2021/04/13 03:11:49;;;;;;;17.40;5.53;;;;;;;1.59;83.96;101998.53;4958914;28;20049;-73
2021/04/13 03:14:19;;;;;;;6.80;4.88;;;;;;;1.58;84.02;102009.78;4968788;28;20058;-71
2021/04/13 03:16:47;;;;;;;13.23;5.47;;;;;;;1.50;84.27;102013.22;4972067;28;20128;-71
2021/04/13 03:19:18;;;;;;;10.27;5.55;;;;;;;1.53;84.14;102012.34;4966381;28;20816;-71
2021/04/13 03:21:57;;;;;;;8.05;5.82;;;;;;;1.52;83.75;102006.28;4999094;28;20160;-73
2021/04/13 03:24:28;;;;;;;8.68;5.75;;;;;;;1.49;84.39;102003.72;4987860;28;20481;-72
2021/04/13 03:27:09;;;;;;;11.10;5.20;;;;;;;1.41;84.26;102012.38;4967522;28;20113;-72
2021/04/13 03:30:03;;;;;;;8.05;4.65;;;;;;;1.39;84.68;102004.56;4977264;28;20054;-71
2021/04/13 03:32:33;;;;;;;6.68;4.63;;;;;;;1.35;85.11;102010.63;4987589;28;20425;-72
2021/04/13 03:35:00;;;;;;;8.55;5.20;;;;;;;1.32;85.17;102008.03;4969249;28;20057;-70
2021/04/13 03:37:28;;;;;;;8.40;5.72;;;;;;;1.44;84.83;102012.34;4950593;28;20054;-71
2021/04/13 03:39:55;;;;;;;9.82;5.30;;;;;;;1.45;84.49;102009.78;4954311;28;20153;-71
2021/04/13 03:42:25;;;;;;;12.38;5.70;;;;;;;1.50;84.53;102013.22;4971179;28;20137;-71
2021/04/13 03:44:52;;;;;;;8.45;5.43;;;;;;;1.44;84.58;102010.66;4953096;28;20463;-71
2021/04/13 03:47:22;;;;;;;8.93;4.88;;;;;;;1.49;84.30;102008.91;4971099;28;20149;-70
2021/04/13 03:49:49;;;;;;;12.25;6.10;;;;;;;1.35;85.06;102010.63;4964367;28;20429;-70
2021/04/13 03:52:29;;;;;;;9.50;5.35;;;;;;;1.30;85.53;102021.84;4952831;28;20125;-70
2021/04/13 03:54:56;;;;;;;8.60;5.00;;;;;;;1.54;84.98;102015.84;4953459;28;20105;-69
2021/04/13 03:57:29;;;;;;;9.15;5.15;;;;;;;1.47;84.84;102015.81;4963009;28;20138;-70
2021/04/13 03:59:57;;;;;;;8.52;4.97;;;;;;;1.31;85.15;102018.41;4981579;28;20050;-71
2021/04/13 04:02:24;;;;;;;11.50;5.53;;;;;;;1.40;84.96;102018.44;4955262;28;20132;-71
2021/04/13 04:05:11;;;;;;;7.15;5.20;;;;;;;1.28;85.90;102019.25;4975262;28;20073;-70
2021/04/13 04:07:45;;;;;;;11.02;5.25;;;;;;;1.20;86.25;102021.81;4985961;28;20046;-70
2021/04/13 04:10:28;;;;;;;14.10;5.97;;;;;;;1.18;86.56;102014.94;4982674;28;20128;-69
2021/04/13 04:13:00;;;;;;;9.77;5.53;;;;;;;1.11;86.59;102014.03;4985909;28;20124;-69
2021/04/13 04:15:30;;;;;;;10.45;5.25;;;;;;;1.15;86.56;102014.91;4951054;28;20125;-69
2021/04/13 04:17:57;;;;;;;11.20;6.00;;;;;;;1.39;85.92;102009.75;4961112;28;20073;-74
2021/04/13 04:20:33;;;;;;;9.75;5.45;;;;;;;1.24;86.39;102022.72;4955183;28;20637;-71
2021/04/13 04:23:00;;;;;;;10.32;5.65;;;;;;;1.44;86.31;102018.44;4972974;28;20053;-71
2021/04/13 04:25:35;;;;;;;10.25;5.80;;;;;;;1.32;85.86;102021.00;4969934;28;20054;-70
2021/04/13 04:28:12;;;;;;;11.98;6.07;;;;;;;1.39;86.20;102016.66;4952657;28;20080;-71
2021/04/13 04:30:39;;;;;;;8.52;5.88;;;;;;;1.45;85.47;102030.53;4967311;28;20049;-71
2021/04/13 04:33:06;;;;;;;8.90;5.95;;;;;;;1.37;85.48;102027.06;4982468;28;20050;-69
2021/04/13 04:35:42;;;;;;;8.65;5.93;;;;;;;1.55;85.44;102030.53;4970152;28;20133;-70
2021/04/13 04:38:24;;;;;;;9.70;5.57;;;;;;;1.58;85.15;102031.41;4969468;28;20046;-71
2021/04/13 04:41:07;;;;;;;8.95;5.43;;;;;;;1.70;84.36;102028.81;4961438;28;20038;-72
2021/04/13 04:43:40;;;;;;;8.27;6.20;;;;;;;1.74;84.65;102037.47;4969289;28;20061;-71
2021/04/13 04:46:07;;;;;;;10.80;6.40;;;;;;;1.70;84.86;102036.59;4955762;28;20075;-71
2021/04/13 04:48:38;;;;;;;15.50;6.15;;;;;;;1.67;84.81;102028.81;4989177;28;20050;-70
2021/04/13 04:51:06;;;;;;;9.38;5.88;;;;;;;1.62;84.71;102033.16;4985295;28;20049;-68
2021/04/13 04:53:34;;;;;;;10.95;5.95;;;;;;;1.93;83.91;102038.31;4968952;28;20117;-71
2021/04/13 04:56:03;;;;;;;14.32;6.50;;;;;;;1.96;83.45;102040.94;4966310;28;20520;-67
2021/04/13 04:58:29;;;;;;;11.32;6.20;;;;;;;1.87;83.54;102044.38;4983191;28;20124;-67
2021/04/13 05:00:56;;;;;;;11.65;7.88;;;;;;;2.09;83.31;102050.44;4985949;28;20133;-68
2021/04/13 05:03:24;;;;;;;15.85;6.97;;;;;;;2.27;82.05;102060.81;4966756;28;20543;-67
2021/04/13 05:05:51;;;;;;;12.90;7.50;;;;;;;2.21;81.99;102059.97;4938904;28;20058;-66
2021/04/13 05:08:19;;;;;;;14.20;7.45;;;;;;;2.53;81.24;102059.88;4968257;28;20539;-66
2021/04/13 05:10:46;;;;;;;10.00;7.10;;;;;;;2.66;80.18;102065.91;4981530;28;20533;-68
2021/04/13 05:13:13;;;;;;;11.48;6.97;;;;;;;2.83;79.82;102065.84;4984832;28;20066;-67
2021/04/13 05:15:40;;;;;;;16.30;7.22;;;;;;;2.99;78.60;102063.19;4952008;28;20042;-67
2021/04/13 05:18:07;;;;;;;12.20;6.95;;;;;;;3.09;78.69;102064.00;4986761;28;20073;-69
2021/04/13 05:20:34;;;;;;;9.18;6.45;;;;;;;3.41;76.85;102055.13;4984520;28;20046;-68
2021/04/13 05:23:01;;;;;;;10.55;6.25;;;;;;;3.85;75.58;102065.25;4981993;28;20054;-67
2021/04/13 05:25:27;;;;;;;11.32;6.28;;;;;;;4.79;73.22;102060.81;4967422;28;20249;-67
2021/04/13 05:27:55;;;;;;;12.57;6.28;;;;;;;5.53;69.67;102057.19;4978110;28;20499;-67
2021/04/13 05:30:22;;;;;;;10.98;5.75;;;;;;;5.81;67.11;102055.03;4953716;28;20603;-67
2021/04/13 05:32:49;;;;;;;8.38;5.47;;;;;;;5.40;67.45;102064.34;4987307;28;20125;-66
2021/04/13 05:35:18;;;;;;;10.20;6.05;;;;;;;5.38;68.23;102065.28;4987875;28;20112;-67
2021/04/13 05:37:45;;;;;;;14.02;7.15;;;;;;;4.76;70.62;102068.66;4991581;28;20054;-67
2021/04/13 05:40:24;;;;;;;10.73;6.70;;;;;;;5.42;68.36;102062.59;4972742;28;20126;-67
2021/04/13 05:42:54;;;;;;;14.07;6.10;;;;;;;5.93;66.15;102065.31;4986416;28;20101;-68
2021/04/13 05:45:22;;;;;;;17.33;6.93;;;;;;;6.00;64.98;102069.56;4970660;28;20076;-68
2021/04/13 05:47:49;;;;;;;10.73;7.07;;;;;;;6.36;64.38;102068.94;4985989;28;20060;-68
2021/04/13 05:50:24;;;;;;;7.60;5.65;;;;;;;6.80;63.36;102071.56;4987469;28;20077;-68
2021/04/13 05:52:51;;;;;;;13.60;6.97;;;;;;;7.40;61.12;102064.19;4984925;28;20078;-69
2021/04/13 05:55:18;;;;;;;8.68;6.38;;;;;;;7.29;60.82;102069.66;4980704;28;20129;-70
2021/04/13 05:57:47;;;;;;;16.25;6.50;;;;;;;7.32;61.80;102061.72;4971109;28;20451;-69
2021/04/13 06:00:17;;;;;;;8.48;5.88;;;;;;;7.77;59.43;102067.66;4982259;28;20572;-69
2021/04/13 06:02:43;;;;;;;11.55;6.13;;;;;;;8.43;57.30;102067.78;4968407;28;20052;-69
2021/04/13 06:05:13;;;;;;;9.10;5.68;;;;;;;8.42;57.05;102069.56;4967972;28;20058;-68
2021/04/13 06:07:44;;;;;;;10.63;5.28;;;;;;;9.04;54.69;102069.53;4964007;28;20081;-69
2021/04/13 06:10:12;;;;;;;15.48;7.25;;;;;;;9.11;54.81;102076.34;4956545;28;20042;-68
2021/04/13 06:12:39;;;;;;;11.82;5.82;;;;;;;9.83;52.31;102074.09;4968823;28;20054;-68
2021/04/13 06:15:06;;;;;;;13.02;5.88;;;;;;;9.88;51.49;102072.16;4986688;28;20073;-68
2021/04/13 06:17:33;;;;;;;9.73;6.00;;;;;;;8.55;54.70;102077.94;4982574;28;20159;-68
2021/04/13 06:20:00;;;;;;;15.27;6.15;;;;;;;8.65;54.52;102084.69;4988259;28;20437;-69
2021/04/13 06:22:26;;;;;;;23.70;5.47;;;;;;;9.22;53.23;102080.41;4987982;28;20058;-70
2021/04/13 06:24:53;;;;;;;10.27;5.65;;;;;;;8.67;53.94;102079.38;4988885;28;20066;-68
2021/04/13 06:27:20;;;;;;;9.25;5.82;;;;;;;10.02;50.88;102087.50;4967949;28;20057;-69
2021/04/13 06:29:47;;;;;;;11.90;5.40;;;;;;;11.45;47.37;102082.38;4986689;28;20137;-68
2021/04/13 06:32:13;;;;;;;13.90;5.32;;;;;;;13.35;42.92;102078.56;4989287;28;20046;-69
2021/04/13 06:34:40;;;;;;;11.18;4.78;;;;;;;13.17;42.44;102084.69;4990360;28;20497;-69
2021/04/13 06:37:09;;;;;;;14.93;6.00;;;;;;;13.02;43.04;102082.75;4988633;28;20133;-69
2021/04/13 06:39:36;;;;;;;13.73;5.88;;;;;;;13.05;42.76;102082.59;4966982;28;20520;-68
2021/04/13 06:42:43;;;;;;;24.90;5.90;;;;;;;12.99;42.73;102088.16;4970816;28;20062;-69
2021/04/13 06:45:15;;;;;;;15.95;6.25;;;;;;;12.41;43.42;102088.97;4949640;28;20150;-68
2021/04/13 06:48:16;;;;;;;15.40;5.40;;;;;;;12.40;44.62;102096.03;4998482;23;20064;-67
2021/04/13 06:51:03;;;;;;;11.35;5.65;;;;;;;12.47;43.91;102091.34;4971276;28;20137;-68
2021/04/13 06:53:55;;;;;;;12.75;5.85;;;;;;;12.21;45.27;102089.84;4963020;28;20540;-69
2021/04/13 06:56:52;;;;;;;13.95;5.75;;;;;;;13.04;42.10;102094.09;5006797;28;20073;-68
2021/04/13 06:59:35;;;;;;;18.95;6.75;;;;;;;12.13;45.21;102094.56;4991276;28;20133;-69
2021/04/13 07:02:09;;;;;;;12.90;5.85;;;;;;;12.15;45.09;102100.63;4994281;28;20302;-69
2021/04/13 07:05:05;;;;;;;12.75;4.63;;;;;;;13.99;40.55;102094.88;4976114;28;20096;-69
2021/04/13 07:07:40;;;;;;;11.20;5.43;;;;;;;15.65;37.61;102079.84;4977115;28;20061;-69
2021/04/13 07:10:23;;;;;;;20.67;6.25;;;;;;;15.66;37.12;102077.09;4994175;28;20074;-70
2021/04/13 07:13:06;;;;;;;11.50;4.82;;;;;;;14.85;38.18;102091.34;4992124;28;20149;-68
2021/04/13 07:15:42;;;;;;;9.18;4.40;;;;;;;14.84;37.85;102094.94;4993947;28;20153;-69
2021/04/13 07:18:27;;;;;;;8.60;4.50;;;;;;;14.84;38.06;102097.56;5005651;28;20133;-69
2021/04/13 07:21:07;;;;;;;9.45;4.13;;;;;;;16.43;35.12;102083.22;4954361;28;20081;-69
2021/04/13 07:23:43;;;;;;;11.85;4.65;;;;;;;15.28;37.09;102081.06;4990130;28;20065;-70
2021/04/13 07:26:16;;;;;;;10.23;4.72;;;;;;;15.60;36.36;102073.94;4955923;28;20385;-68
2021/04/13 07:28:56;;;;;;;14.60;4.93;;;;;;;16.46;35.17;102070.63;4989578;28;20141;-71
2021/04/13 07:31:31;;;;;;;10.90;5.28;;;;;;;16.77;34.30;102075.91;4990061;28;20077;-69
2021/04/13 07:33:57;;;;;;;10.70;4.50;;;;;;;18.51;32.11;102080.47;4955882;28;20043;-68
2021/04/13 07:36:39;;;;;;;9.52;4.97;;;;;;;18.67;30.93;102077.56;4973031;28;20120;-69
2021/04/13 07:39:07;;;;;;;7.50;4.28;;;;;;;17.02;33.46;102073.44;4975034;28;20180;-69
2021/04/13 07:41:45;;;;;;;12.35;5.03;;;;;;;14.05;39.01;102081.31;4977980;28;20117;-70
2021/04/13 07:44:23;;;;;;;8.98;5.05;;;;;;;14.77;38.42;102090.88;4956357;28;21259;-70
2021/04/13 07:47:24;;;;;;;7.72;4.60;;;;;;;15.33;37.31;102079.84;4972144;28;20500;-68
2021/04/13 07:49:53;;;;;;;8.90;4.30;;;;;;;16.02;35.92;102083.88;4987385;28;20137;-69
2021/04/13 07:52:44;;;;;;;12.93;4.40;;;;;;;15.57;36.53;102082.91;4970568;28;20141;-68
2021/04/13 07:55:24;;;;;;;11.95;4.88;;;;;;;14.92;37.81;102084.78;4975215;28;20597;-68
2021/04/13 07:58:04;;;;;;;8.98;4.05;;;;;;;15.76;35.77;102077.47;5007814;28;20055;-68
2021/04/13 08:00:38;;;;;;;11.25;4.60;;;;;;;14.91;37.62;102081.28;4956550;28;20078;-69
2021/04/13 08:03:09;;;;;;;10.07;3.97;;;;;;;16.27;34.94;102067.38;4975370;28;20050;-69
2021/04/13 08:05:39;;;;;;;9.82;4.68;;;;;;;14.75;37.74;102088.31;4989042;28;20054;-69
2021/04/13 08:08:09;;;;;;;14.52;4.68;;;;;;;15.45;36.84;102084.47;4988463;28;20050;-70
2021/04/13 08:10:38;;;;;;;8.02;4.30;;;;;;;17.38;33.94;102078.22;4970582;28;20109;-69
2021/04/13 08:13:07;;;;;;;10.48;4.00;;;;;;;16.16;36.20;102083.06;4972218;28;20412;-70
2021/04/13 08:15:42;;;;;;;6.70;3.63;;;;;;;14.11;40.21;102092.47;4976670;28;20141;-69
2021/04/13 08:18:31;;;;;;;9.83;4.17;;;;;;;12.50;41.83;102093.00;4954982;28;20401;-68
2021/04/13 08:21:17;;;;;;;11.90;4.50;;;;;;;11.53;45.44;102096.13;4987761;28;20933;-69
2021/04/13 08:23:44;;;;;;;12.70;5.38;;;;;;;9.43;50.96;102092.91;4989129;28;20050;-69
2021/04/13 08:26:18;;;;;;;10.48;4.47;;;;;;;9.00;51.92;102102.03;4989277;28;20077;-68
2021/04/13 08:28:54;;;;;;;9.85;4.38;;;;;;;9.53;50.14;102090.84;4979571;28;20472;-66
2021/04/13 08:34:40;;;;;;;7.63;4.00;;;;;;;9.95;50.35;102083.38;4992614;28;20054;-70
2021/04/13 08:37:10;;;;;;;6.55;3.28;;;;;;;11.28;45.97;102080.38;4997964;28;20061;-68
2021/04/13 08:39:42;;;;;;;10.48;3.10;;;;;;;12.02;44.17;102084.47;4994220;28;20082;-67
2021/04/13 08:42:32;;;;;;;12.52;3.90;;;;;;;11.35;45.87;102088.00;5001434;28;20050;-68
2021/04/13 08:45:21;;;;;;;12.55;3.55;;;;;;;10.36;48.66;102097.78;5001486;28;20499;-69
2021/04/13 08:47:54;;;;;;;11.95;3.05;;;;;;;9.61;49.80;102083.59;4967579;28;20747;-68
2021/04/13 08:50:24;;;;;;;10.07;3.58;;;;;;;9.70;50.42;102093.81;4969010;28;20113;-68
2021/04/13 08:52:53;;;;;;;11.52;3.63;;;;;;;8.98;52.52;102108.25;4969643;28;20043;-67
2021/04/13 08:55:29;;;;;;;7.70;3.20;;;;;;;8.93;52.89;102110.16;4956750;28;20049;-68
2021/04/13 08:58:16;;;;;;;;;;;;;;;9.11;52.04;102102.59;4954294;28;20469;-68
2021/04/13 09:00:51;;;;;;;11.45;3.00;;;;;;;9.89;49.43;102099.31;4988444;28;19980;-66
2021/04/13 09:03:20;;;;;;;12.10;2.97;;;;;;;9.66;49.88;102096.59;4971652;28;20038;-69
2021/04/13 09:06:04;;;;;;;8.73;3.20;;;;;;;9.75;50.43;102102.41;4987962;28;20449;-68
2021/04/13 09:08:48;;;;;;;12.55;3.90;;;;;;;9.16;51.07;102112.13;4967852;28;20108;-70
2021/04/13 09:11:17;;;;;;;8.77;2.90;;;;;;;8.69;52.29;102109.94;4970420;28;20141;-69
2021/04/13 09:14:00;;;;;;;9.57;2.78;;;;;;;8.62;52.35;102111.84;4990113;28;20073;-68
2021/04/13 09:16:26;;;;;;;6.45;2.53;;;;;;;8.73;51.41;102105.44;4957067;28;20173;-69
2021/04/13 09:18:58;;;;;;;8.35;2.78;;;;;;;8.55;52.35;102105.03;5004664;28;20100;-67
2021/04/13 09:21:39;;;;;;;6.68;2.55;;;;;;;9.05;50.01;102107.16;5007871;28;20078;-69
2021/04/13 09:24:38;;;;;;;10.25;2.70;;;;;;;8.78;51.57;102099.19;4957935;28;20058;-69
2021/04/13 09:27:24;;;;;;;5.00;2.63;;;;;;;9.51;50.78;102084.78;4975392;28;20607;-69
2021/04/13 09:29:56;;;;;;;10.55;2.63;;;;;;;9.55;49.91;102097.78;4960544;28;20042;-69
2021/04/13 09:32:23;;;;;;;7.32;2.72;;;;;;;9.87;48.95;102099.38;4974056;28;20125;-68
2021/04/13 09:35:04;;;;;;;9.15;3.03;;;;;;;10.06;48.40;102094.38;4981254;28;20081;-68
2021/04/13 09:37:42;;;;;;;10.98;3.00;;;;;;;10.27;47.67;102094.63;4990567;28;20118;-69
2021/04/13 09:40:23;;;;;;;5.75;2.47;;;;;;;9.88;48.19;102092.34;4977992;28;20081;-67
2021/04/13 09:43:27;;;;;;;14.50;3.13;;;;;;;9.12;48.99;102095.59;4971349;28;20077;-68
2021/04/13 09:46:33;;;;;;;13.60;2.10;;;;;;;8.56;50.39;102091.03;4978790;28;20057;-69
2021/04/13 09:49:13;;;;;;;8.75;2.33;;;;;;;8.13;52.38;102092.13;4994657;28;20047;-68
2021/04/13 09:52:07;;;;;;;7.93;2.35;;;;;;;8.61;51.82;102093.53;4973280;28;20126;-68
2021/04/13 09:54:41;;;;;;;10.00;2.50;;;;;;;8.49;52.18;102088.59;4988268;28;20157;-68
2021/04/13 09:57:36;;;;;;;15.02;3.10;;;;;;;8.39;51.95;102089.75;4975720;28;20521;-67
2021/04/13 10:00:28;;;;;;;10.63;3.10;;;;;;;8.20;52.85;102089.34;4960199;28;20118;-67
2021/04/13 10:03:12;;;;;;;16.63;2.63;;;;;;;7.95;51.54;102084.72;4988421;28;20050;-67
2021/04/13 10:05:44;;;;;;;6.93;2.75;;;;;;;7.82;51.67;102084.13;5001896;28;20137;-69
2021/04/13 10:08:19;;;;;;;7.03;2.75;;;;;;;7.92;51.78;102084.78;4975547;28;20054;-68
2021/04/13 10:11:41;;;;;;;9.98;2.97;;;;;;;7.93;52.64;102086.53;4982566;28;20270;-67
2021/04/13 10:14:44;;;;;;;14.82;3.22;;;;;;;8.99;49.98;102078.47;4988876;28;20492;-68
2021/04/13 10:17:22;;;;;;;11.48;4.18;;;;;;;9.73;47.92;102083.19;4992776;28;20154;-68
2021/04/13 10:20:08;;;;;;;10.93;3.65;;;;;;;9.68;47.93;102079.84;4998138;28;20125;-68
2021/04/13 10:22:52;;;;;;;10.77;3.83;;;;;;;8.65;50.59;102082.06;5008935;28;20141;-67
2021/04/13 10:26:06;;;;;;;9.55;2.90;;;;;;;8.99;49.26;102081.09;4959314;28;20070;-69
2021/04/13 10:29:00;;;;;;;8.98;2.72;;;;;;;9.16;49.29;102080.59;5022034;28;20050;-68
2021/04/13 10:31:32;;;;;;;7.85;2.00;;;;;;;8.82;47.92;102086.81;5000126;28;20406;-69
2021/04/13 10:34:25;;;;;;;6.35;2.00;;;;;;;9.59;46.33;102081.00;4995253;28;20046;-68
2021/04/13 10:37:23;;;;;;;12.18;2.63;;;;;;;10.42;45.64;102088.81;4973614;28;20110;-70
2021/04/13 10:40:07;;;;;;;11.15;2.90;;;;;;;10.37;45.48;102082.84;5005041;28;20121;-69
2021/04/13 10:43:19;;;;;;;6.18;2.78;;;;;;;10.49;45.51;102084.16;4974919;28;20141;-69
2021/04/13 10:46:14;;;;;;;8.85;2.80;;;;;;;9.54;46.60;102088.16;4989755;28;20068;-68
2021/04/13 10:49:13;;;;;;;10.82;2.53;;;;;;;8.88;47.56;102086.66;5005909;28;20157;-68
2021/04/13 10:51:52;;;;;;;14.25;2.70;;;;;;;8.81;47.80;102079.84;4974626;28;20133;-68
2021/04/13 10:54:53;;;;;;;10.93;2.70;;;;;;;9.34;48.65;102080.91;4989100;28;20322;-68
2021/04/13 10:57:46;;;;;;;10.95;2.75;;;;;;;9.73;46.67;102083.19;4990538;28;20548;-68
2021/04/13 11:00:28;;;;;;;7.15;2.55;;;;;;;9.79;46.93;102075.09;4972534;28;20380;-69
2021/04/13 11:03:14;;;;;;;11.40;2.40;;;;;;;9.49;47.96;102074.28;4988395;28;20209;-69
2021/04/13 11:05:59;;;;;;;17.73;3.45;;;;;;;9.11;49.34;102078.97;4991359;28;20451;-71
2021/04/13 11:08:51;;;;;;;8.85;2.65;;;;;;;9.55;48.69;102075.91;4991152;28;20138;-68
2021/04/13 11:11:43;;;;;;;12.60;1.98;;;;;;;9.32;46.70;102077.47;4988915;28;20086;-69
2021/04/13 11:14:29;;;;;;;11.10;2.10;;;;;;;8.65;47.41;102068.06;4989629;28;20113;-69
2021/04/13 11:17:33;;;;;;;11.48;2.30;;;;;;;9.23;47.78;102071.59;4991910;28;20078;-69
2021/04/13 11:20:15;;;;;;;8.75;2.05;;;;;;;9.53;46.54;102059.28;4972410;28;20090;-69
2021/04/13 11:22:47;;;;;;;13.13;2.10;;;;;;;8.53;47.43;102057.00;4958260;28;20046;-68
2021/04/13 11:25:17;;;;;;;17.35;3.10;;;;;;;7.95;50.15;102074.22;4990118;28;20129;-67
2021/04/13 11:28:14;;;;;;;13.50;2.22;;;;;;;8.16;48.99;102077.22;4997150;28;20133;-68
2021/04/13 11:31:06;;;;;;;24.48;2.85;;;;;;;8.25;48.62;102075.22;5002574;28;20055;-69
2021/04/13 11:33:58;;;;;;;13.63;2.35;;;;;;;9.06;47.05;102064.25;5006414;28;20046;-69
2021/04/13 11:36:48;;;;;;;8.23;1.95;;;;;;;8.94;46.37;102065.47;4977215;28;20054;-68
2021/04/13 11:39:25;;;;;;;11.23;2.13;;;;;;;8.89;47.00;102070.00;4965028;28;20126;-68
2021/04/13 11:42:29;;;;;;;13.75;2.38;;;;;;;8.42;48.06;102071.28;4980201;28;20080;-69
2021/04/13 11:45:16;;;;;;;9.25;2.30;;;;;;;8.87;48.36;102070.03;4992685;28;20058;-67
2021/04/13 11:48:07;;;;;;;6.30;2.17;;;;;;;8.51;48.98;102066.69;4973558;28;20073;-67
2021/04/13 11:51:07;;;;;;;14.38;1.95;;;;;;;8.25;50.09;102071.72;4988364;28;20081;-66
2021/04/13 11:53:39;;;;;;;9.77;2.38;;;;;;;8.92;46.71;102072.53;4954229;28;20082;-68
2021/04/13 11:56:20;;;;;;;8.55;2.70;;;;;;;8.73;46.84;102074.78;4990316;28;20125;-68
2021/04/13 11:59:20;;;;;;;10.13;2.30;;;;;;;9.07;46.81;102064.19;4972660;28;20049;-67
2021/04/13 12:01:58;;;;;;;14.98;2.08;;;;;;;9.06;45.56;102064.25;4984937;28;20066;-67
2021/04/13 12:04:43;;;;;;;5.53;1.50;;;;;;;9.06;44.64;102059.00;4957136;28;20125;-69
2021/04/13 12:07:10;;;;;;;11.90;1.87;;;;;;;9.05;45.60;102059.88;4992123;28;20110;-72
2021/04/13 12:10:02;;;;;;;5.20;1.40;;;;;;;9.46;44.59;102048.13;4981688;28;20516;-68
2021/04/13 12:12:29;;;;;;;8.27;1.70;;;;;;;9.66;43.22;102049.25;4976212;28;20062;-68
2021/04/13 12:15:01;;;;;;;10.07;1.90;;;;;;;9.07;43.54;102042.31;4990963;28;20054;-69
2021/04/13 12:17:40;;;;;;;5.72;1.67;;;;;;;9.60;43.51;102042.44;4991916;28;20058;-70
2021/04/13 12:20:33;;;;;;;6.93;1.55;;;;;;;9.92;42.87;102041.38;4973131;28;20137;-68
2021/04/13 12:23:03;;;;;;;9.80;1.85;;;;;;;10.66;40.81;102037.03;4992582;28;20046;-69
2021/04/13 12:25:41;;;;;;;4.35;1.10;;;;;;;11.03;40.28;102033.00;4976425;28;20412;-70
2021/04/13 12:28:34;;;;;;;9.18;1.75;;;;;;;11.52;39.54;102028.44;4990722;28;20054;-70
2021/04/13 12:31:03;;;;;;;10.07;2.53;;;;;;;10.81;39.78;102044.38;4978291;28;20116;-69
2021/04/13 12:33:30;;;;;;;10.07;2.20;;;;;;;10.52;40.16;102028.78;4992236;28;20088;-69
2021/04/13 12:35:57;;;;;;;7.68;1.80;;;;;;;10.81;40.33;102033.84;4972733;28;20078;-68
2021/04/13 12:38:46;;;;;;;8.90;1.27;;;;;;;10.37;41.66;102027.56;4972575;28;20054;-69
2021/04/13 12:41:31;;;;;;;12.38;1.38;;;;;;;10.04;43.00;102034.81;4989080;28;20660;-67
2021/04/13 12:44:11;;;;;;;9.55;1.60;;;;;;;10.06;42.59;102038.28;4972798;28;20050;-68
2021/04/13 12:50:48;;;;;;;9.75;1.60;;;;;;;9.62;44.43;102033.56;4987398;23;20193;-66
2021/04/13 12:53:18;;;;;;;9.35;2.08;;;;;;;9.35;44.77;102029.19;4981771;28;20054;-69
2021/04/13 12:55:45;;;;;;;7.70;1.77;;;;;;;9.07;45.97;102035.28;4984182;28;20599;-68
2021/04/13 12:58:21;;;;;;;5.97;2.13;;;;;;;9.12;45.56;102022.88;4980123;28;20146;-69
2021/04/13 13:00:49;;;;;;;10.63;1.65;;;;;;;9.92;43.42;102030.00;4953505;28;20109;-69
2021/04/13 13:03:20;;;;;;;10.38;1.60;;;;;;;9.76;44.04;102029.63;4980479;28;20038;-70
2021/04/13 13:05:49;;;;;;;10.45;1.90;;;;;;;9.98;43.92;102028.00;4980378;28;20058;-69
2021/04/13 13:08:23;;;;;;;7.93;1.63;;;;;;;9.74;44.51;102027.06;4977043;28;20467;-69
2021/04/13 13:10:57;;;;;;;5.60;1.52;;;;;;;9.16;44.64;102017.53;4987268;28;20109;-69
2021/04/13 13:13:29;;;;;;;7.47;1.40;;;;;;;9.09;44.38;102020.34;4985609;28;20054;-67
2021/04/13 13:15:56;;;;;;;6.78;1.30;;;;;;;8.56;45.92;102020.16;4983195;28;20076;-69
2021/04/13 13:18:37;;;;;;;6.20;1.60;;;;;;;8.59;46.15;102019.19;4970498;28;20137;-68
2021/04/13 13:21:07;;;;;;;10.05;1.45;;;;;;;8.49;45.54;102021.22;4966539;28;20439;-67
2021/04/13 13:23:39;;;;;;;9.20;1.88;;;;;;;8.52;45.29;102021.16;4971397;28;20497;-72
2021/04/13 13:26:29;;;;;;;8.02;1.40;;;;;;;8.61;46.01;102020.03;4967409;28;20230;-68
2021/04/13 13:28:56;;;;;;;13.93;1.70;;;;;;;8.71;46.74;102004.88;4981862;28;20054;-67
2021/04/13 13:31:26;;;;;;;11.70;1.77;;;;;;;8.61;47.02;102005.13;4985718;28;20062;-71
2021/04/13 13:34:04;;;;;;;8.32;1.77;;;;;;;8.79;46.22;101998.50;4985744;28;20142;-69
2021/04/13 13:36:38;;;;;;;10.23;1.73;;;;;;;8.96;45.12;101999.75;4968859;28;20064;-68
2021/04/13 13:39:27;;;;;;;14.98;2.30;;;;;;;8.80;45.09;101994.09;4986137;28;20100;-70
2021/04/13 13:41:55;;;;;;;11.07;2.20;;;;;;;8.92;46.01;101993.75;4986886;28;20092;-70
2021/04/13 13:44:32;;;;;;;7.50;1.42;;;;;;;9.07;45.54;101980.13;4965819;28;20531;-69
2021/04/13 13:47:01;;;;;;;7.38;1.55;;;;;;;9.65;44.24;101987.91;4965840;28;20050;-68
2021/04/13 13:49:43;;;;;;;8.00;1.60;;;;;;;9.95;43.34;101977.25;4966153;28;20135;-69
2021/04/13 13:52:12;;;;;;;12.10;1.95;;;;;;;9.81;42.79;101981.22;4970260;28;20062;-69
2021/04/13 13:54:40;;;;;;;14.63;1.73;;;;;;;9.86;43.20;101978.44;4941250;28;20399;-68
2021/04/13 13:57:18;;;;;;;7.07;1.50;;;;;;;9.92;41.56;101975.59;4950906;28;20054;-68
2021/04/13 13:59:47;;;;;;;6.95;1.88;;;;;;;10.29;41.12;101980.44;4983782;28;20141;-67
2021/04/13 14:02:23;;;;;;;7.40;1.25;;;;;;;10.60;40.62;101971.44;4999604;28;20580;-67
2021/04/13 14:05:08;;;;;;;8.18;2.05;;;;;;;10.83;40.32;101971.41;4969256;28;20039;-68
2021/04/13 14:07:35;;;;;;;27.25;3.08;;;;;;;10.68;40.68;101979.06;4999717;28;20050;-68
2021/04/13 14:10:14;;;;;;;12.80;1.88;;;;;;;10.98;40.51;101966.47;5003015;28;20049;-69
2021/04/13 14:12:43;;;;;;;13.07;1.75;;;;;;;11.10;42.36;101965.97;4970226;28;20042;-67
2021/04/13 14:15:30;;;;;;;4.80;1.50;;;;;;;10.98;41.28;101956.78;4987973;28;20096;-67
2021/04/13 14:18:05;;;;;;;9.02;2.15;;;;;;;10.79;39.72;101963.69;5003069;28;20128;-69
2021/04/13 14:20:32;;;;;;;5.97;1.95;;;;;;;10.42;39.91;101974.75;4984123;28;20410;-68
2021/04/13 14:23:10;;;;;;;7.32;1.73;;;;;;;9.87;40.47;101967.00;4994691;28;20484;-68
2021/04/13 14:25:38;;;;;;;13.93;2.30;;;;;;;10.02;41.40;101965.63;4966908;28;20073;-69
2021/04/13 14:28:26;;;;;;;5.57;1.52;;;;;;;10.02;41.52;101958.56;4989021;28;20432;-69
2021/04/13 14:30:54;;;;;;;17.58;2.08;;;;;;;9.78;41.81;101962.06;4971438;28;20050;-68
2021/04/13 14:33:22;;;;;;;7.75;2.10;;;;;;;9.73;42.36;101958.75;4981726;28;20574;-68
2021/04/13 14:35:49;;;;;;;6.07;1.55;;;;;;;9.65;41.73;101953.75;4988868;28;20049;-68
2021/04/13 14:38:22;;;;;;;8.15;1.70;;;;;;;9.79;42.12;101954.13;5004983;28;20063;-69
2021/04/13 14:40:49;;;;;;;8.90;1.95;;;;;;;9.72;41.20;101939.44;5003079;28;20041;-68
2021/04/13 14:43:16;;;;;;;8.32;1.50;;;;;;;9.36;41.12;101945.03;5009869;28;20481;-68
2021/04/13 14:45:43;;;;;;;5.50;1.48;;;;;;;9.32;41.11;101943.44;5012941;28;20137;-68
2021/04/13 14:48:17;;;;;;;12.15;1.58;;;;;;;9.55;40.86;101949.72;5010183;28;20102;-67
2021/04/13 14:50:48;;;;;;;7.78;1.42;;;;;;;9.73;40.09;101945.59;4983409;28;20460;-69
2021/04/13 14:53:17;;;;;;;14.80;1.65;;;;;;;9.52;37.36;101942.78;4978060;28;20316;-67
2021/04/13 14:55:44;;;;;;;3.58;1.30;;;;;;;9.70;37.58;101935.19;4980811;28;20048;-68
2021/04/13 14:58:16;;;;;;;5.82;1.35;;;;;;;9.57;37.75;101935.59;4985836;28;20161;-69
2021/04/13 15:00:44;;;;;;;14.13;1.80;;;;;;;9.23;38.46;101937.59;4989310;28;20052;-68
2021/04/13 15:03:11;;;;;;;14.13;2.00;;;;;;;9.11;39.03;101925.72;4974392;28;20046;-67
2021/04/13 15:05:39;;;;;;;7.68;1.60;;;;;;;9.20;38.95;101924.56;4987475;28;20300;-67
2021/04/13 15:08:11;;;;;;;6.32;1.38;;;;;;;8.96;40.39;101923.56;4987366;28;20046;-69